Time;durP1;ratioP1;P1;durP2;ratioP2;P2;SDS_P1;SDS_P2;PMS_P1;PMS_P2;Temp;Humidity;BMP_temperature;BMP_pressure;BME280_temperature;BME280_humidity;BME280_pressure;Samples;Min_cycle;Max_cycle;Signal;HPM_P1;HPM_P2
2022/10/18 00:00:28;;;;;;;;;;;;;;;16.73;nan;101364.00;5081624;28;20085;-68
2022/10/18 00:02:53;;;;;;;4.22;2.70;;;;;;;16.68;nan;101368.16;5067276;28;20054;-68
2022/10/18 00:05:18;;;;;;;4.17;2.90;;;;;;;16.64;nan;101367.69;5082849;28;20113;-68
2022/10/18 00:07:44;;;;;;;5.05;2.92;;;;;;;16.61;nan;101361.84;5085367;28;20285;-68
2022/10/18 00:10:09;;;;;;;3.10;2.38;;;;;;;16.58;nan;101357.69;5079105;28;20456;-68
2022/10/18 00:12:36;;;;;;;3.05;2.20;;;;;;;16.53;nan;101349.34;5080900;28;20051;-68
2022/10/18 00:15:03;;;;;;;4.30;2.40;;;;;;;16.46;nan;101343.84;5083876;28;20032;-68
2022/10/18 00:17:28;;;;;;;3.28;2.67;;;;;;;16.43;nan;101354.06;5085263;28;20024;-68
2022/10/18 00:19:54;;;;;;;3.63;2.60;;;;;;;16.42;nan;101352.38;5085727;28;20386;-68
2022/10/18 00:22:19;;;;;;;4.35;2.67;;;;;;;16.44;nan;101355.72;5068460;28;20032;-68
2022/10/18 00:24:45;;;;;;;3.47;2.85;;;;;;;16.46;nan;101356.38;5067352;28;20086;-68
2022/10/18 00:27:10;;;;;;;4.87;2.83;;;;;;;16.48;nan;101349.03;5067815;28;20101;-68
2022/10/18 00:29:35;;;;;;;;;;;;;;;16.50;nan;101360.38;5087662;28;20278;-68
2022/10/18 00:32:00;;;;;;;;;;;;;;;16.52;nan;101347.69;5084284;28;19916;-68
2022/10/18 00:34:26;;;;;;;4.03;2.77;;;;;;;16.55;nan;101347.34;5086953;28;19937;-68
2022/10/18 00:36:51;;;;;;;4.68;2.97;;;;;;;16.57;nan;101342.66;5081384;28;20059;-68
2022/10/18 00:39:18;;;;;;;5.03;2.92;;;;;;;16.57;nan;101340.00;5079453;28;20086;-68
2022/10/18 00:41:44;;;;;;;5.55;3.58;;;;;;;16.59;nan;101331.81;5081435;28;20032;-68
2022/10/18 00:44:09;;;;;;;6.55;3.60;;;;;;;16.59;nan;101332.66;5085000;28;20466;-68
2022/10/18 00:46:37;;;;;;;5.40;3.67;;;;;;;16.61;nan;101330.63;5080359;28;20401;-68
2022/10/18 00:49:07;;;;;;;4.85;3.35;;;;;;;16.66;nan;101325.63;5079663;28;20038;-68
2022/10/18 00:51:43;;;;;;;6.30;3.50;;;;;;;16.79;nan;101321.59;5072546;28;20032;-69
2022/10/18 00:54:08;;;;;;;5.13;3.35;;;;;;;16.91;nan;101326.38;5074551;28;20464;-68
2022/10/18 00:56:34;;;;;;;5.25;3.47;;;;;;;17.04;nan;101327.66;5086664;28;20263;-68
2022/10/18 00:58:59;;;;;;;5.05;3.30;;;;;;;17.12;nan;101327.63;5079164;28;20040;-68
2022/10/18 01:01:24;;;;;;;3.60;2.80;;;;;;;17.16;nan;101324.44;5084397;28;20233;-68
2022/10/18 01:03:51;;;;;;;5.07;2.90;;;;;;;17.20;nan;101325.72;5083313;28;20059;-68
2022/10/18 01:06:17;;;;;;;4.38;2.80;;;;;;;17.23;nan;101321.88;5090195;28;20040;-68
2022/10/18 01:08:55;;;;;;;3.58;2.45;;;;;;;17.27;nan;101325.03;5068913;28;20511;-68
2022/10/18 01:11:39;;;;;;;4.07;2.40;;;;;;;17.27;nan;101320.50;5074434;28;20446;-68
2022/10/18 01:14:22;;;;;;;3.67;2.03;;;;;;;17.27;nan;101309.81;5081194;28;20078;-68
2022/10/18 01:17:00;;;;;;;3.97;2.30;;;;;;;17.29;nan;101317.66;5073073;28;20440;-68
2022/10/18 01:19:53;;;;;;;3.50;2.20;;;;;;;17.28;nan;101321.34;5081837;28;20119;-68
2022/10/18 01:22:33;;;;;;;3.92;2.00;;;;;;;17.25;nan;101311.84;5088805;28;20024;-68
2022/10/18 01:25:11;;;;;;;3.92;1.90;;;;;;;17.26;nan;101312.69;5082272;28;20032;-68
2022/10/18 01:27:59;;;;;;;3.13;2.22;;;;;;;17.25;nan;101313.69;5070806;28;20036;-68
2022/10/18 01:30:35;;;;;;;3.28;2.42;;;;;;;17.25;nan;101314.50;5078359;28;20032;-69
2022/10/18 01:33:18;;;;;;;3.42;2.30;;;;;;;17.25;nan;101317.19;5070090;28;20257;-68
2022/10/18 01:35:51;;;;;;;3.90;2.50;;;;;;;17.26;nan;101318.88;5069062;28;20105;-68
2022/10/18 01:38:19;;;;;;;2.45;1.88;;;;;;;17.23;nan;101313.84;5069916;28;20438;-68
2022/10/18 01:40:48;;;;;;;7.13;2.30;;;;;;;17.22;nan;101311.38;5085517;28;20123;-68
2022/10/18 01:43:16;;;;;;;3.80;3.05;;;;;;;17.14;nan;101310.41;5067959;28;20029;-68
2022/10/18 01:45:41;;;;;;;5.20;3.15;;;;;;;17.13;nan;101321.25;5083669;28;20032;-68
2022/10/18 01:48:09;;;;;;;4.13;2.72;;;;;;;17.14;nan;101305.06;5065327;28;20507;-68
2022/10/18 01:50:34;;;;;;;4.10;2.58;;;;;;;17.15;nan;101311.22;5067546;28;20102;-68
2022/10/18 01:53:00;;;;;;;4.72;2.60;;;;;;;17.15;nan;101305.88;5068836;28;20202;-68
2022/10/18 01:55:39;;;;;;;4.05;2.78;;;;;;;17.16;nan;101313.75;5087525;28;20032;-68
2022/10/18 01:58:19;;;;;;;3.80;2.95;;;;;;;17.18;nan;101309.06;5079109;28;20036;-68
2022/10/18 02:00:54;;;;;;;3.67;2.83;;;;;;;17.17;nan;101309.22;5070251;28;20037;-68
2022/10/18 02:03:26;;;;;;;6.65;2.90;;;;;;;17.17;nan;101302.03;5076108;28;20097;-68
2022/10/18 02:06:07;;;;;;;3.38;2.20;;;;;;;17.17;nan;101309.22;5091313;28;20159;-68
2022/10/18 02:08:45;;;;;;;3.87;2.30;;;;;;;17.15;nan;101300.53;5079555;28;20039;-68
2022/10/18 02:11:13;;;;;;;3.20;2.20;;;;;;;17.12;nan;101292.88;5058682;28;20263;-68
2022/10/18 02:13:46;;;;;;;5.50;3.03;;;;;;;17.12;nan;101295.56;5078812;28;20086;-68
2022/10/18 02:16:23;;;;;;;4.20;2.38;;;;;;;17.11;nan;101286.72;5079265;28;20064;-68
2022/10/18 02:18:57;;;;;;;4.85;2.38;;;;;;;17.10;nan;101284.22;5069544;28;20057;-68
2022/10/18 02:21:24;;;;;;;3.85;2.63;;;;;;;17.08;nan;101280.88;5084203;28;20028;-68
2022/10/18 02:23:51;;;;;;;4.45;2.90;;;;;;;17.05;nan;101281.25;5079304;28;20032;-68
2022/10/18 02:26:16;;;;;;;3.55;2.42;;;;;;;17.00;nan;101279.09;5084130;28;20397;-68
2022/10/18 02:28:44;;;;;;;8.52;3.58;;;;;;;16.93;nan;101283.47;5078120;28;20035;-68
2022/10/18 02:31:20;;;;;;;4.38;2.80;;;;;;;16.90;nan;101273.97;5072824;28;20044;-68
2022/10/18 02:33:57;;;;;;;4.30;3.20;;;;;;;16.89;nan;101272.28;5076266;28;20520;-68
2022/10/18 02:36:26;;;;;;;5.25;3.85;;;;;;;16.93;nan;101272.78;5080969;28;20032;-68
2022/10/18 02:39:00;;;;;;;7.60;3.80;;;;;;;17.05;nan;101273.22;5076399;28;20033;-68
2022/10/18 02:41:26;;;;;;;6.43;3.40;;;;;;;17.26;nan;101272.59;5085532;28;20028;-68
2022/10/18 02:43:51;;;;;;;6.85;3.67;;;;;;;17.39;nan;101284.34;5069137;28;20044;-68
2022/10/18 02:46:17;;;;;;;5.00;2.85;;;;;;;17.48;nan;101269.06;5086645;28;20160;-68
2022/10/18 02:48:43;;;;;;;4.97;2.72;;;;;;;17.56;nan;101273.53;5068288;28;20040;-68
2022/10/18 02:51:08;;;;;;;3.97;2.37;;;;;;;17.61;nan;101280.03;5066890;28;20040;-68
2022/10/18 02:53:33;;;;;;;4.23;2.60;;;;;;;17.70;nan;101275.41;5072146;28;20374;-68
2022/10/18 02:55:58;;;;;;;4.47;2.88;;;;;;;17.77;nan;101286.22;5082928;28;20799;-68
2022/10/18 02:58:24;;;;;;;6.93;2.80;;;;;;;17.86;nan;101289.72;5064996;28;20029;-68
2022/10/18 03:00:49;;;;;;;6.00;3.00;;;;;;;17.97;nan;101286.56;5067896;28;20343;-68
2022/10/18 03:03:15;;;;;;;5.45;3.03;;;;;;;18.06;nan;101282.81;5071162;28;20493;-68
2022/10/18 03:05:40;;;;;;;3.72;2.45;;;;;;;18.11;nan;101287.63;5082577;28;20035;-68
2022/10/18 03:08:05;;;;;;;6.30;2.73;;;;;;;18.16;nan;101283.41;5082385;28;20031;-68
2022/10/18 03:10:31;;;;;;;5.38;2.40;;;;;;;18.18;nan;101294.72;5071826;28;20259;-68
2022/10/18 03:12:56;;;;;;;4.97;2.35;;;;;;;18.24;nan;101295.84;5082494;28;20043;-68
2022/10/18 03:15:21;;;;;;;5.00;2.60;;;;;;;18.25;nan;101286.78;5087023;28;20424;-68
2022/10/18 03:17:47;;;;;;;4.32;2.58;;;;;;;18.29;nan;101290.78;5077596;28;20290;-68
2022/10/18 03:20:12;;;;;;;5.47;2.70;;;;;;;18.35;nan;101297.22;5069226;28;20082;-68
2022/10/18 03:22:38;;;;;;;4.57;2.55;;;;;;;18.39;nan;101293.19;5092310;28;20028;-68
2022/10/18 03:25:03;;;;;;;4.03;2.50;;;;;;;18.42;nan;101288.31;5086731;28;20468;-68
2022/10/18 03:27:29;;;;;;;4.72;3.10;;;;;;;18.48;nan;101285.91;5078245;28;20031;-68
2022/10/18 03:29:54;;;;;;;7.20;2.88;;;;;;;18.50;nan;101289.22;5085792;28;20047;-68
2022/10/18 03:32:19;;;;;;;4.40;3.15;;;;;;;18.54;nan;101290.50;5075026;28;20119;-68
2022/10/18 03:34:44;;;;;;;4.20;2.80;;;;;;;18.54;nan;101285.97;5070799;28;20131;-68
2022/10/18 03:37:10;;;;;;;4.53;2.42;;;;;;;18.54;nan;101285.97;5069236;28;20817;-68
2022/10/18 03:39:35;;;;;;;3.97;2.70;;;;;;;18.56;nan;101288.47;5072053;28;20120;-68
2022/10/18 03:42:00;;;;;;;4.33;2.60;;;;;;;18.58;nan;101299.81;5070084;28;20036;-68
2022/10/18 03:44:25;;;;;;;6.45;2.60;;;;;;;18.59;nan;101304.16;5074457;28;20301;-68
2022/10/18 03:46:51;;;;;;;3.60;2.30;;;;;;;18.56;nan;101313.41;5086063;28;20496;-68
2022/10/18 03:49:16;;;;;;;4.13;2.70;;;;;;;18.55;nan;101302.88;5084335;28;20294;-68
2022/10/18 03:51:41;;;;;;;6.97;3.00;;;;;;;18.57;nan;101311.56;5069749;28;20046;-68
2022/10/18 03:54:06;;;;;;;6.95;3.10;;;;;;;18.50;nan;101340.94;5074403;28;20311;-69
2022/10/18 03:56:32;;;;;;;6.60;3.10;;;;;;;18.45;nan;101362.91;5077008;28;20063;-68
2022/10/18 03:58:57;;;;;;;8.98;4.05;;;;;;;18.33;nan;101364.38;5067945;28;20271;-68
2022/10/18 04:01:22;;;;;;;6.05;4.05;;;;;;;18.13;nan;101368.56;5071298;28;20513;-68
2022/10/18 04:03:47;;;;;;;5.13;3.28;;;;;;;18.00;nan;101364.66;5086164;28;20089;-68
2022/10/18 04:06:13;;;;;;;4.43;3.20;;;;;;;17.93;nan;101377.09;5089269;28;20381;-68
2022/10/18 04:08:38;;;;;;;6.40;4.20;;;;;;;17.78;nan;101376.16;5081583;28;20279;-68
2022/10/18 04:11:07;;;;;;;6.85;4.70;;;;;;;17.63;nan;101378.78;5074591;28;20290;-68
2022/10/18 04:13:34;;;;;;;6.70;4.68;;;;;;;17.53;nan;101373.66;5075719;28;20032;-68
2022/10/18 04:15:59;;;;;;;5.93;4.25;;;;;;;17.47;nan;101371.72;5085906;28;20169;-67
2022/10/18 04:18:24;;;;;;;9.30;4.88;;;;;;;17.39;nan;101371.75;5071571;28;20236;-68
2022/10/18 04:20:49;;;;;;;8.50;5.20;;;;;;;17.33;nan;101377.81;5083117;28;20036;-68
2022/10/18 04:23:15;;;;;;;9.20;5.20;;;;;;;17.27;nan;101379.31;5071814;28;20831;-68
2022/10/18 04:25:40;;;;;;;7.18;4.30;;;;;;;17.26;nan;101391.03;5088972;28;20440;-68
2022/10/18 04:28:06;;;;;;;6.13;4.45;;;;;;;17.24;nan;101386.88;5084797;28;20148;-68
2022/10/18 04:30:31;;;;;;;6.00;4.93;;;;;;;17.19;nan;101390.88;5081263;28;20082;-68
2022/10/18 04:32:57;;;;;;;6.55;4.63;;;;;;;17.19;nan;101390.88;5077997;28;20037;-68
2022/10/18 04:35:24;;;;;;;5.90;3.90;;;;;;;17.18;nan;101399.06;5070147;28;20534;-68
2022/10/18 04:37:50;;;;;;;6.82;4.03;;;;;;;17.18;nan;101389.25;5087508;28;20306;-68
2022/10/18 04:40:15;;;;;;;5.10;3.83;;;;;;;17.16;nan;101388.56;5085551;28;20531;-68
2022/10/18 04:42:40;;;;;;;6.15;4.00;;;;;;;17.16;nan;101388.56;5086630;28;20500;-68
2022/10/18 04:45:06;;;;;;;6.93;4.23;;;;;;;17.13;nan;101377.38;5089203;28;20024;-68
2022/10/18 04:47:31;;;;;;;6.93;3.97;;;;;;;17.12;nan;101381.91;5081064;28;20845;-69
2022/10/18 04:49:56;;;;;;;6.47;3.88;;;;;;;17.09;nan;101382.25;5085098;28;20082;-68
2022/10/18 04:52:22;;;;;;;6.30;4.53;;;;;;;17.08;nan;101385.91;5070653;28;20569;-69
2022/10/18 04:54:47;;;;;;;7.53;3.90;;;;;;;17.05;nan;101380.94;5087324;28;20288;-68
2022/10/18 04:57:12;;;;;;;4.60;3.43;;;;;;;17.06;nan;101382.59;5070513;28;20278;-68
2022/10/18 04:59:37;;;;;;;4.20;3.50;;;;;;;17.04;nan;101379.28;5085967;28;20317;-68
2022/10/18 05:02:03;;;;;;;4.63;3.80;;;;;;;17.04;nan;101383.75;5077010;28;20097;-68
2022/10/18 05:04:32;;;;;;;5.05;3.90;;;;;;;17.04;nan;101379.28;5083924;28;20289;-68
2022/10/18 05:06:57;;;;;;;4.90;3.45;;;;;;;17.05;nan;101374.75;5085383;28;20043;-68
2022/10/18 05:09:23;;;;;;;4.00;3.17;;;;;;;17.04;nan;101365.91;5072142;28;20032;-68
2022/10/18 05:11:49;;;;;;;5.13;3.40;;;;;;;17.06;nan;101363.88;5084407;28;20158;-68
2022/10/18 05:14:14;;;;;;;3.50;2.58;;;;;;;17.07;nan;101372.75;5080516;28;20032;-68
2022/10/18 05:16:40;;;;;;;5.15;4.00;;;;;;;17.04;nan;101370.41;5079592;28;20040;-68
2022/10/18 05:19:05;;;;;;;7.55;4.40;;;;;;;17.00;nan;101371.78;5070442;28;20028;-68
2022/10/18 05:21:31;;;;;;;4.68;3.95;;;;;;;16.97;nan;101367.59;5075219;28;20162;-68
2022/10/18 05:23:56;;;;;;;5.78;4.40;;;;;;;16.95;nan;101372.28;5068034;28;20500;-68
2022/10/18 05:26:22;;;;;;;5.45;4.43;;;;;;;16.93;nan;101375.13;5080783;28;20165;-68
2022/10/18 05:28:50;;;;;;;7.63;3.80;;;;;;;16.95;nan;101369.63;5080759;28;20030;-68
2022/10/18 05:31:15;;;;;;;4.95;3.00;;;;;;;16.95;nan;101369.63;5066150;28;20040;-67
2022/10/18 05:33:41;;;;;;;3.90;2.75;;;;;;;16.97;nan;101375.59;5083571;28;20558;-68
2022/10/18 05:36:06;;;;;;;4.47;2.80;;;;;;;16.97;nan;101362.25;5081054;28;20072;-68
2022/10/18 05:38:32;;;;;;;5.78;2.97;;;;;;;16.96;nan;101357.91;5077431;28;20036;-68
2022/10/18 05:40:58;;;;;;;4.60;2.60;;;;;;;16.93;nan;101355.59;5077167;28;20404;-68
2022/10/18 05:43:27;;;;;;;4.75;2.90;;;;;;;16.91;nan;101369.13;5065475;28;20059;-68
2022/10/18 05:45:52;;;;;;;4.47;2.60;;;;;;;16.92;nan;101364.59;5084497;28;20040;-68
2022/10/18 05:48:18;;;;;;;5.05;2.55;;;;;;;16.93;nan;101361.78;5084461;28;20401;-67
2022/10/18 05:50:43;;;;;;;3.78;3.00;;;;;;;16.91;nan;101357.59;5081245;28;20048;-67
2022/10/18 05:53:09;;;;;;;4.85;2.83;;;;;;;16.90;nan;101355.94;5085156;28;20036;-68
2022/10/18 05:55:34;;;;;;;5.63;2.80;;;;;;;16.91;nan;101354.94;5079655;28;20508;-67
2022/10/18 05:58:00;;;;;;;4.35;3.25;;;;;;;16.92;nan;101360.13;5082527;28;20050;-67
2022/10/18 06:00:25;;;;;;;5.47;3.55;;;;;;;16.91;nan;101360.28;5078666;28;20035;-68
2022/10/18 06:02:51;;;;;;;4.80;3.38;;;;;;;16.88;nan;101356.13;5087160;28;20036;-68
2022/10/18 06:05:16;;;;;;;6.20;3.03;;;;;;;16.83;nan;101354.94;5090893;28;20090;-68
2022/10/18 06:07:42;;;;;;;8.38;3.75;;;;;;;16.79;nan;101349.13;5091761;28;20064;-68
2022/10/18 06:10:07;;;;;;;5.22;3.45;;;;;;;16.74;nan;101354.97;5082452;28;20042;-68
2022/10/18 06:12:33;;;;;;;6.18;3.78;;;;;;;16.70;nan;101352.81;5068035;28;20097;-69
2022/10/18 06:14:58;;;;;;;6.77;4.03;;;;;;;16.66;nan;101362.16;5070198;28;20036;-68
2022/10/18 06:17:23;;;;;;;10.33;5.30;;;;;;;16.64;nan;101366.88;5067640;28;20274;-69
2022/10/18 06:19:48;;;;;;;6.67;4.50;;;;;;;16.65;nan;101372.00;5065186;28;20309;-69
2022/10/18 06:22:14;;;;;;;6.30;3.95;;;;;;;16.69;nan;101365.31;5083277;28;20770;-68
2022/10/18 06:24:39;;;;;;;8.07;4.60;;;;;;;16.75;nan;101348.59;5071322;28;20035;-68
2022/10/18 06:27:07;;;;;;;6.32;4.15;;;;;;;16.79;nan;101370.50;5080057;28;20386;-68
2022/10/18 06:29:36;;;;;;;5.15;3.53;;;;;;;16.80;nan;101363.31;5071773;28;20036;-68
2022/10/18 06:32:03;;;;;;;5.53;3.55;;;;;;;16.81;nan;101360.50;5081403;28;20123;-71
2022/10/18 06:34:28;;;;;;;5.80;3.75;;;;;;;16.85;nan;101358.28;5074803;28;20098;-68
2022/10/18 06:36:54;;;;;;;5.53;3.63;;;;;;;16.86;nan;101355.47;5084829;28;20044;-68
2022/10/18 06:39:19;;;;;;;5.07;3.63;;;;;;;16.91;nan;101361.09;5084370;28;20136;-68
2022/10/18 06:41:44;;;;;;;5.10;3.47;;;;;;;16.96;nan;101361.41;5068266;28;20040;-68
2022/10/18 06:44:13;;;;;;;4.20;3.30;;;;;;;17.06;nan;101373.75;5066897;28;20779;-68
2022/10/18 06:46:42;;;;;;;4.28;3.45;;;;;;;17.05;nan;101369.41;5067171;28;20085;-69
2022/10/18 06:49:08;;;;;;;5.13;3.55;;;;;;;17.04;nan;101375.75;5085133;28;20535;-68
2022/10/18 06:51:33;;;;;;;5.38;3.50;;;;;;;17.05;nan;101380.09;5071323;28;20093;-68
2022/10/18 06:53:58;;;;;;;5.10;3.60;;;;;;;17.08;nan;101385.09;5087693;28;20036;-68
2022/10/18 06:56:23;;;;;;;3.53;2.90;;;;;;;17.11;nan;101387.41;5090810;28;20598;-68
2022/10/18 06:58:49;;;;;;;4.45;3.38;;;;;;;17.09;nan;101386.75;5090612;28;20036;-68
2022/10/18 07:01:15;;;;;;;5.43;3.97;;;;;;;17.11;nan;101392.75;5080155;28;20025;-68
2022/10/18 07:03:42;;;;;;;4.43;3.15;;;;;;;17.17;nan;101389.41;5080614;28;20032;-68
2022/10/18 07:06:09;;;;;;;4.78;3.20;;;;;;;17.23;nan;101396.69;5095519;28;20062;-69
2022/10/18 07:08:35;;;;;;;6.80;3.67;;;;;;;17.44;nan;101404.13;5068168;28;20468;-68
2022/10/18 07:11:01;;;;;;;5.18;3.85;;;;;;;17.59;nan;101404.19;5070088;28;20392;-70
2022/10/18 07:13:29;;;;;;;3.97;2.77;;;;;;;17.63;nan;101411.69;5082948;28;20928;-68
2022/10/18 07:16:15;;;;;;;4.45;2.75;;;;;;;17.65;nan;101424.09;5073268;28;20404;-70
2022/10/18 07:18:42;;;;;;;3.70;3.10;;;;;;;17.60;nan;101430.78;5072038;28;20395;-70
2022/10/18 07:21:13;;;;;;;4.13;3.00;;;;;;;17.39;nan;101442.06;5074633;28;20421;-70
2022/10/18 07:23:41;;;;;;;6.25;3.60;;;;;;;17.17;nan;101441.00;5093626;28;20762;-67
2022/10/18 07:26:17;;;;;;;6.28;4.15;;;;;;;17.08;nan;101430.53;5085342;28;20847;-67
2022/10/18 07:28:44;;;;;;;4.05;3.38;;;;;;;17.01;nan;101430.38;5079532;28;20405;-67
2022/10/18 07:31:11;;;;;;;5.40;3.87;;;;;;;17.05;nan;101433.53;5084374;28;20404;-70
2022/10/18 07:33:37;;;;;;;5.57;3.70;;;;;;;17.07;nan;101439.56;5068875;28;20450;-67
2022/10/18 07:36:06;;;;;;;5.22;3.47;;;;;;;17.08;nan;101438.53;5079706;28;20430;-68
2022/10/18 07:38:32;;;;;;;3.85;2.50;;;;;;;17.07;nan;101444.91;5073323;28;20407;-67
2022/10/18 07:41:02;;;;;;;2.33;2.07;;;;;;;17.01;nan;101469.63;5075085;28;20406;-67
2022/10/18 07:43:28;;;;;;;4.20;2.80;;;;;;;16.99;nan;101477.78;5082288;28;20395;-67
2022/10/18 07:45:55;;;;;;;4.50;3.20;;;;;;;17.03;nan;101479.13;5073186;28;20420;-66
2022/10/18 07:48:20;;;;;;;5.22;3.65;;;;;;;17.08;nan;101481.28;5080937;28;20413;-68
2022/10/18 07:50:46;;;;;;;5.37;3.57;;;;;;;17.12;nan;101471.94;5079728;28;20803;-68
2022/10/18 07:53:11;;;;;;;7.47;3.80;;;;;;;17.12;nan;101469.25;5066906;28;20404;-68
2022/10/18 07:55:36;;;;;;;5.53;3.90;;;;;;;17.09;nan;101477.59;5068726;28;20396;-68
2022/10/18 07:58:01;;;;;;;6.17;3.30;;;;;;;17.15;nan;101484.94;5070434;28;20493;-68
2022/10/18 08:00:27;;;;;;;4.00;3.20;;;;;;;17.19;nan;101487.09;5087766;28;20895;-68
2022/10/18 08:02:59;;;;;;;4.75;3.10;;;;;;;17.24;nan;101493.78;5088542;28;20383;-68
2022/10/18 08:05:25;;;;;;;5.00;3.28;;;;;;;17.24;nan;101488.44;5090255;28;20398;-68
2022/10/18 08:07:51;;;;;;;5.57;3.80;;;;;;;17.33;nan;101496.25;5055564;28;20429;-68
2022/10/18 08:10:17;;;;;;;6.13;3.87;;;;;;;17.40;nan;101483.88;5068700;28;20795;-68
2022/10/18 08:12:42;;;;;;;5.80;3.90;;;;;;;17.40;nan;101480.38;5070572;28;20533;-68
2022/10/18 08:15:08;;;;;;;4.70;3.40;;;;;;;17.39;nan;101481.34;5076779;28;20904;-68
2022/10/18 08:17:33;;;;;;;4.77;3.33;;;;;;;17.38;nan;101485.06;5050159;28;20380;-68
2022/10/18 08:19:59;;;;;;;5.10;3.72;;;;;;;17.39;nan;101481.34;5068341;28;20514;-68
2022/10/18 08:22:24;;;;;;;;;;;;;;;17.23;nan;101479.56;5069487;28;20055;-68
2022/10/18 08:24:49;;;;;;;;;;;;;;;17.25;nan;101482.06;5071480;28;19960;-68
2022/10/18 08:27:14;;;;;;;;;;;;;;;17.37;nan;101481.53;5089644;28;19912;-68
2022/10/18 08:29:40;;;;;;;4.73;3.40;;;;;;;17.62;nan;101474.25;5088745;28;19912;-68
2022/10/18 08:32:06;;;;;;;4.55;3.35;;;;;;;17.93;nan;101481.47;5068609;28;20041;-69
2022/10/18 08:34:32;;;;;;;3.88;3.00;;;;;;;18.12;nan;101490.03;5068994;28;20033;-68
2022/10/18 08:36:57;;;;;;;7.53;3.60;;;;;;;18.09;nan;101493.06;5070004;28;20459;-68
2022/10/18 08:39:23;;;;;;;5.53;3.50;;;;;;;18.19;nan;101489.16;5073893;28;20989;-68
2022/10/18 08:41:57;;;;;;;6.17;4.23;;;;;;;18.04;nan;101489.09;5081307;28;20044;-68
2022/10/18 08:44:27;;;;;;;6.25;4.18;;;;;;;17.94;nan;101493.00;5068807;28;20259;-68
2022/10/18 08:47:02;;;;;;;8.88;4.65;;;;;;;17.89;nan;101493.50;5068896;28;20028;-68
2022/10/18 08:49:41;;;;;;;7.22;4.88;;;;;;;17.83;nan;101494.25;5083859;28;20104;-68
2022/10/18 08:52:18;;;;;;;5.38;4.18;;;;;;;17.81;nan;101494.41;5080417;28;20393;-69
2022/10/18 08:55:09;;;;;;;5.55;4.00;;;;;;;17.93;nan;101496.69;5088707;28;20067;-68
2022/10/18 08:57:34;;;;;;;8.38;5.00;;;;;;;17.98;nan;101494.31;5072902;28;20496;-68
2022/10/18 09:00:02;;;;;;;5.70;4.50;;;;;;;18.14;nan;101493.34;5068244;28;20064;-68
2022/10/18 09:02:52;;;;;;;7.97;5.00;;;;;;;18.30;nan;101485.19;5068028;28;20040;-68
2022/10/18 09:05:42;;;;;;;5.80;4.30;;;;;;;18.42;nan;101491.81;5082264;28;20032;-69
2022/10/18 09:08:31;;;;;;;4.68;3.83;;;;;;;18.71;nan;101484.03;5078603;28;20541;-69
2022/10/18 09:11:38;;;;;;;9.93;4.55;;;;;;;18.75;nan;101479.97;5066523;28;20642;-68
2022/10/18 09:14:41;;;;;;;7.43;4.40;;;;;;;18.95;nan;101494.56;5067725;28;20037;-68
2022/10/18 09:17:25;;;;;;;9.82;4.75;;;;;;;18.99;nan;101492.31;5080061;28;20024;-68
2022/10/18 09:19:53;;;;;;;6.30;4.32;;;;;;;18.87;nan;101490.09;5088282;28;20389;-68
2022/10/18 09:22:31;;;;;;;5.03;4.07;;;;;;;18.87;nan;101494.63;5063976;28;20063;-68
2022/10/18 09:25:16;;;;;;;7.55;4.07;;;;;;;18.87;nan;101494.63;5068429;28;20024;-67
2022/10/18 09:27:52;;;;;;;5.85;4.25;;;;;;;19.00;nan;101497.50;5082149;28;20036;-68
2022/10/18 09:30:28;;;;;;;4.63;3.30;;;;;;;19.39;nan;101499.06;5065799;28;20028;-68
2022/10/18 09:33:33;;;;;;;5.10;4.00;;;;;;;19.88;nan;101498.47;5072908;28;20032;-68
2022/10/18 09:36:03;;;;;;;;;;;;;;;20.23;nan;101503.16;5081467;28;20032;-68
2022/10/18 09:38:35;;;;;;;;;;;;;;;20.41;nan;101498.19;5088563;28;20364;-68
2022/10/18 09:41:07;;;;;;;;;;;;;;;20.47;nan;101502.75;5077453;28;19916;-68
2022/10/18 09:43:55;;;;;;;7.15;4.13;;;;;;;20.54;nan;101500.13;5085360;28;20345;-68
2022/10/18 09:46:26;;;;;;;6.35;4.68;;;;;;;20.52;nan;101488.75;5080188;28;20042;-68
2022/10/18 09:48:57;;;;;;;4.68;3.42;;;;;;;20.98;nan;101494.50;5086527;28;20394;-68
2022/10/18 09:51:27;;;;;;;3.67;3.00;;;;;;;21.51;nan;101504.75;5072539;28;20395;-68
2022/10/18 09:54:11;;;;;;;4.88;2.85;;;;;;;21.77;nan;101500.53;5067703;28;20143;-68
2022/10/18 09:56:49;;;;;;;3.92;2.90;;;;;;;22.19;nan;101504.78;5081499;28;20389;-68
2022/10/18 09:59:30;;;;;;;5.28;3.70;;;;;;;22.34;nan;101518.09;5081477;28;20649;-68
2022/10/18 10:01:55;;;;;;;;;;;;;;;22.80;nan;101519.94;5074392;28;20040;-68
2022/10/18 10:04:20;;;;;;;4.73;3.50;;;;;;;23.19;nan;101517.44;5067743;28;19916;-69
2022/10/18 10:06:54;;;;;;;4.38;3.58;;;;;;;23.67;nan;101525.19;5081580;28;20644;-68
2022/10/18 10:09:30;;;;;;;;;;;;;;;24.51;nan;101513.28;5087095;28;20040;-68
2022/10/18 10:11:56;;;;;;;5.80;3.63;;;;;;;24.29;nan;101526.31;5077714;28;20502;-68
2022/10/18 10:14:25;;;;;;;6.28;3.70;;;;;;;23.86;nan;101529.69;5070409;28;20415;-69
2022/10/18 10:16:53;;;;;;;4.85;3.40;;;;;;;23.34;nan;101526.13;5073436;28;20086;-69
2022/10/18 10:19:32;;;;;;;4.43;2.78;;;;;;;22.98;nan;101526.59;5077887;28;20033;-68
2022/10/18 10:22:11;;;;;;;4.70;2.90;;;;;;;22.82;nan;101535.94;5091242;28;20705;-68
2022/10/18 10:24:49;;;;;;;4.50;3.28;;;;;;;22.77;nan;101530.34;5062846;28;20795;-68
2022/10/18 10:27:29;;;;;;;6.30;4.00;;;;;;;22.59;nan;101531.78;5073897;28;20119;-69
2022/10/18 10:29:57;;;;;;;6.50;4.40;;;;;;;22.30;nan;101535.69;5079503;28;20596;-68
2022/10/18 10:32:41;;;;;;;4.95;3.70;;;;;;;22.04;nan;101533.75;5084351;28;20083;-68
2022/10/18 10:35:25;;;;;;;;;;;;;;;21.93;nan;101529.78;5091565;28;20032;-68
2022/10/18 10:37:52;;;;;;;6.50;4.57;;;;;;;21.86;nan;101528.94;5090289;28;20394;-68
2022/10/18 10:40:24;;;;;;;5.45;3.90;;;;;;;21.79;nan;101536.16;5077399;28;20158;-68
2022/10/18 10:43:03;;;;;;;7.15;4.57;;;;;;;21.77;nan;101539.03;5088810;28;20595;-68
2022/10/18 10:45:32;;;;;;;7.13;5.05;;;;;;;21.79;nan;101536.16;5091029;28;20445;-68
2022/10/18 10:48:04;;;;;;;6.70;5.13;;;;;;;22.17;nan;101533.78;5088925;28;20393;-68
2022/10/18 10:50:30;;;;;;;8.20;5.40;;;;;;;22.30;nan;101541.09;5090417;28;20039;-68
2022/10/18 10:52:57;;;;;;;7.82;4.82;;;;;;;22.64;nan;101531.16;5083210;28;20036;-68
2022/10/18 10:55:30;;;;;;;6.18;4.68;;;;;;;22.81;nan;101540.50;5068799;28;20032;-68
2022/10/18 10:57:55;;;;;;;8.55;4.47;;;;;;;22.83;nan;101538.41;5081731;28;20028;-69
2022/10/18 11:00:41;;;;;;;6.28;3.95;;;;;;;22.72;nan;101532.84;5068017;28;20043;-68
2022/10/18 11:03:19;;;;;;;8.27;5.35;;;;;;;22.55;nan;101532.38;5080399;28;20378;-68
2022/10/18 11:05:47;;;;;;;9.00;4.93;;;;;;;22.66;nan;101532.59;5085545;28;20067;-69
2022/10/18 11:08:18;;;;;;;5.53;4.47;;;;;;;22.79;nan;101530.97;5088582;28;20036;-68
2022/10/18 11:10:52;;;;;;;7.47;4.28;;;;;;;22.89;nan;101534.88;5068931;28;20035;-68
2022/10/18 11:13:30;;;;;;;8.02;4.47;;;;;;;23.03;nan;101534.91;5088676;28;20075;-68
2022/10/18 11:16:04;;;;;;;5.85;4.35;;;;;;;23.00;nan;101533.47;5086262;28;20096;-69
2022/10/18 11:18:35;;;;;;;5.80;4.25;;;;;;;22.84;nan;101531.16;5073991;28;20520;-69
2022/10/18 11:21:07;;;;;;;7.40;5.10;;;;;;;22.55;nan;101533.25;5090763;28;20493;-68
2022/10/18 11:23:35;;;;;;;8.95;5.55;;;;;;;22.21;nan;101528.84;5089239;28;20055;-68
2022/10/18 11:26:09;;;;;;;6.80;4.70;;;;;;;21.94;nan;101530.59;5086693;28;20119;-68
2022/10/18 11:28:35;;;;;;;7.18;4.82;;;;;;;21.69;nan;101531.16;5071219;28;20032;-68
2022/10/18 11:31:19;;;;;;;5.93;4.23;;;;;;;21.40;nan;101526.84;5080025;28;20214;-69
2022/10/18 11:34:03;;;;;;;7.97;4.10;;;;;;;21.21;nan;101531.06;5089961;28;20745;-69
2022/10/18 11:36:36;;;;;;;6.82;4.30;;;;;;;20.98;nan;101526.78;5074514;28;20067;-68
2022/10/18 11:39:15;;;;;;;7.18;5.00;;;;;;;;;;5073206;28;20466;-68
2022/10/18 11:41:52;;;;;;;6.97;5.35;;;;;;;20.71;nan;101359.13;5086666;28;20422;-68
2022/10/18 11:44:20;;;;;;;;;;;;;;;20.21;nan;101347.56;5090257;28;20024;-68
2022/10/18 11:47:04;;;;;;;6.53;3.90;;;;;;;19.91;nan;101352.31;5073546;28;19916;-68
2022/10/18 11:49:36;;;;;;;8.63;5.75;;;;;;;19.62;nan;101353.25;5084776;28;20394;-68
2022/10/18 11:52:13;;;;;;;5.40;4.80;;;;;;;;;;5063179;28;20077;-70
2022/10/18 11:54:41;;;;;;;8.15;5.93;;;;;;;;;;5074235;28;20044;-68
2022/10/18 11:57:12;;;;;;;6.88;5.55;;;;;;;;;;5080949;28;20413;-68